Главная страница
METAR-TAF:

METAR-TAF

Аэропорты :

Эребру, Швеция

широта: 59-14N, долгота: 015-03E, высота над уровнем моря: 57 м

Текущие метеонаблюдения

Эта сводка был подготовлена 47 минут назад, в 15:20 UTC
Ветер 4 Узел от восточный, изменяющийся между северо-восточный и юго-восточный
Температура 14°C
Влажность 77%
Давление 1010 hPa
Видимость 10 км и более

METAR: ESOE 221520Z AUTO 09004KT 050V130 9999 BKN055/// 14/10 Q1010 RERA

Время: 18:07 (16:07 UTC)

Прогноз

Эта сводка был подготовлена 4 часа и 37 минут назад, в 11:30 UTC
Прогноз действительный с 22-го 12 UTC до 22-го 16 UTC
Ветер 8 Узел от восточный
Видимость 10 км и более
Нет облачности ниже 1500 м, и нет кучево-дождевой облачности

TAF: ESOE 221130Z 2212/2216 09008KT CAVOK

Метеонаблюдения и прогнозы для более 4000 аэропортов (сводки METAR и TAF).

Имеющиеся станции представлены на карте желтыми и красными точками.

Чтобы увидеть название станции, наведите на нее мышь.

Затем щелкните, чтобы увидеть метеонаблюдения и метеопрогнозы.

Управление картой: чтобы увеличить масштаб, щелкните зеленые кнопки с черным крестиком; чтобы уменьшить масштаб, щелкните зеленую кнопку с тире; для просмотра соседних карт щелкайте зеленые стрелки.


METAR-TAF: